sensor_id;sensor_type;location;lat;lon;timestamp;temperature;humidity
54622;DHT22;40521;53.146;6.556;2023-04-24T00:00:59;10.70;99.90
54622;DHT22;40521;53.146;6.556;2023-04-24T00:03:26;10.70;99.90
54622;DHT22;40521;53.146;6.556;2023-04-24T00:05:56;10.70;99.90
54622;DHT22;40521;53.146;6.556;2023-04-24T00:08:22;10.70;99.90
54622;DHT22;40521;53.146;6.556;2023-04-24T00:10:49;10.70;99.90
54622;DHT22;40521;53.146;6.556;2023-04-24T00:13:14;10.80;99.90
54622;DHT22;40521;53.146;6.556;2023-04-24T00:15:40;10.80;99.90
54622;DHT22;40521;53.146;6.556;2023-04-24T00:18:05;10.80;99.90
54622;DHT22;40521;53.146;6.556;2023-04-24T00:20:31;10.80;99.90
54622;DHT22;40521;53.146;6.556;2023-04-24T00:23:01;10.80;99.90
54622;DHT22;40521;53.146;6.556;2023-04-24T00:25:26;10.80;99.90
54622;DHT22;40521;53.146;6.556;2023-04-24T00:27:52;10.80;99.90
54622;DHT22;40521;53.146;6.556;2023-04-24T00:30:17;10.70;99.90
54622;DHT22;40521;53.146;6.556;2023-04-24T00:32:43;10.70;99.90
54622;DHT22;40521;53.146;6.556;2023-04-24T00:35:09;10.60;99.90
54622;DHT22;40521;53.146;6.556;2023-04-24T00:37:35;10.50;99.90
54622;DHT22;40521;53.146;6.556;2023-04-24T00:40:01;10.50;99.90
54622;DHT22;40521;53.146;6.556;2023-04-24T00:42:27;10.40;99.90
54622;DHT22;40521;53.146;6.556;2023-04-24T00:44:53;10.40;99.90
54622;DHT22;40521;53.146;6.556;2023-04-24T00:47:19;10.40;99.90
54622;DHT22;40521;53.146;6.556;2023-04-24T00:49:45;10.30;99.90
54622;DHT22;40521;53.146;6.556;2023-04-24T00:52:10;10.30;99.90
54622;DHT22;40521;53.146;6.556;2023-04-24T00:54:37;10.30;99.90
54622;DHT22;40521;53.146;6.556;2023-04-24T00:57:03;10.20;99.90
54622;DHT22;40521;53.146;6.556;2023-04-24T00:59:29;10.30;99.90
54622;DHT22;40521;53.146;6.556;2023-04-24T01:01:55;10.20;99.90
54622;DHT22;40521;53.146;6.556;2023-04-24T01:04:21;10.20;99.90
54622;DHT22;40521;53.146;6.556;2023-04-24T01:06:46;10.20;99.90
54622;DHT22;40521;53.146;6.556;2023-04-24T01:09:12;10.20;99.90
54622;DHT22;40521;53.146;6.556;2023-04-24T01:11:40;10.10;99.90
54622;DHT22;40521;53.146;6.556;2023-04-24T01:14:06;10.10;99.90
54622;DHT22;40521;53.146;6.556;2023-04-24T01:16:32;10.10;99.90
54622;DHT22;40521;53.146;6.556;2023-04-24T01:18:58;10.10;99.90
54622;DHT22;40521;53.146;6.556;2023-04-24T01:21:24;10.10;99.90
54622;DHT22;40521;53.146;6.556;2023-04-24T01:23:52;10.10;99.90
54622;DHT22;40521;53.146;6.556;2023-04-24T01:26:19;10.10;99.90
54622;DHT22;40521;53.146;6.556;2023-04-24T01:28:46;10.10;99.90
54622;DHT22;40521;53.146;6.556;2023-04-24T01:31:11;10.10;99.90
54622;DHT22;40521;53.146;6.556;2023-04-24T01:33:37;10.10;99.90
54622;DHT22;40521;53.146;6.556;2023-04-24T01:36:03;10.00;99.90
54622;DHT22;40521;53.146;6.556;2023-04-24T01:38:28;10.00;99.90
54622;DHT22;40521;53.146;6.556;2023-04-24T01:40:54;10.00;99.90
54622;DHT22;40521;53.146;6.556;2023-04-24T01:43:20;10.00;99.90
54622;DHT22;40521;53.146;6.556;2023-04-24T01:45:46;10.00;99.90
54622;DHT22;40521;53.146;6.556;2023-04-24T01:48:12;10.00;99.90
54622;DHT22;40521;53.146;6.556;2023-04-24T01:50:38;10.00;99.90
54622;DHT22;40521;53.146;6.556;2023-04-24T01:53:03;9.90;99.90
54622;DHT22;40521;53.146;6.556;2023-04-24T01:55:29;10.00;99.90
54622;DHT22;40521;53.146;6.556;2023-04-24T01:57:55;10.00;99.90
54622;DHT22;40521;53.146;6.556;2023-04-24T02:00:24;10.00;99.90
54622;DHT22;40521;53.146;6.556;2023-04-24T02:02:50;10.80;99.90
54622;DHT22;40521;53.146;6.556;2023-04-24T02:05:15;10.00;99.90
54622;DHT22;40521;53.146;6.556;2023-04-24T02:07:41;10.00;99.90
54622;DHT22;40521;53.146;6.556;2023-04-24T02:10:07;9.90;99.90
54622;DHT22;40521;53.146;6.556;2023-04-24T02:12:32;9.90;99.90
54622;DHT22;40521;53.146;6.556;2023-04-24T02:14:58;10.00;99.90
54622;DHT22;40521;53.146;6.556;2023-04-24T02:17:24;10.00;99.90
54622;DHT22;40521;53.146;6.556;2023-04-24T02:19:49;10.00;99.90
54622;DHT22;40521;53.146;6.556;2023-04-24T02:22:15;10.00;99.90
54622;DHT22;40521;53.146;6.556;2023-04-24T02:24:41;10.00;99.90
54622;DHT22;40521;53.146;6.556;2023-04-24T02:27:06;10.00;99.90
54622;DHT22;40521;53.146;6.556;2023-04-24T02:29:32;9.90;99.90
54622;DHT22;40521;53.146;6.556;2023-04-24T02:31:58;10.00;99.90
54622;DHT22;40521;53.146;6.556;2023-04-24T02:34:23;10.00;99.90
54622;DHT22;40521;53.146;6.556;2023-04-24T02:36:49;9.90;99.90
54622;DHT22;40521;53.146;6.556;2023-04-24T02:39:15;9.90;99.90
54622;DHT22;40521;53.146;6.556;2023-04-24T02:41:42;9.90;99.90
54622;DHT22;40521;53.146;6.556;2023-04-24T02:44:07;9.90;99.90
54622;DHT22;40521;53.146;6.556;2023-04-24T02:46:35;9.90;99.90
54622;DHT22;40521;53.146;6.556;2023-04-24T02:49:01;9.90;99.90
54622;DHT22;40521;53.146;6.556;2023-04-24T02:51:26;9.90;99.90
54622;DHT22;40521;53.146;6.556;2023-04-24T02:53:52;9.90;99.90
54622;DHT22;40521;53.146;6.556;2023-04-24T02:56:17;9.90;99.90
54622;DHT22;40521;53.146;6.556;2023-04-24T02:58:43;9.90;99.90
54622;DHT22;40521;53.146;6.556;2023-04-24T03:01:09;9.90;99.90
54622;DHT22;40521;53.146;6.556;2023-04-24T03:03:38;10.00;99.90
54622;DHT22;40521;53.146;6.556;2023-04-24T03:06:03;9.90;99.90
54622;DHT22;40521;53.146;6.556;2023-04-24T03:08:31;9.90;99.90
54622;DHT22;40521;53.146;6.556;2023-04-24T03:10:57;9.90;99.90
54622;DHT22;40521;53.146;6.556;2023-04-24T03:13:22;9.90;99.90
54622;DHT22;40521;53.146;6.556;2023-04-24T03:15:48;9.90;99.90
54622;DHT22;40521;53.146;6.556;2023-04-24T03:18:13;9.90;99.90
54622;DHT22;40521;53.146;6.556;2023-04-24T03:20:39;9.90;99.90
54622;DHT22;40521;53.146;6.556;2023-04-24T03:23:05;9.90;99.90
54622;DHT22;40521;53.146;6.556;2023-04-24T03:25:30;9.90;99.90
54622;DHT22;40521;53.146;6.556;2023-04-24T03:27:56;9.90;99.90
54622;DHT22;40521;53.146;6.556;2023-04-24T03:30:22;9.90;99.90
54622;DHT22;40521;53.146;6.556;2023-04-24T03:32:47;9.80;99.90
54622;DHT22;40521;53.146;6.556;2023-04-24T03:35:13;10.50;99.90
54622;DHT22;40521;53.146;6.556;2023-04-24T03:37:39;9.90;99.90
54622;DHT22;40521;53.146;6.556;2023-04-24T03:40:05;9.80;99.90
54622;DHT22;40521;53.146;6.556;2023-04-24T03:42:32;9.80;99.90
54622;DHT22;40521;53.146;6.556;2023-04-24T03:44:57;9.90;99.90
54622;DHT22;40521;53.146;6.556;2023-04-24T03:47:23;9.90;99.90
54622;DHT22;40521;53.146;6.556;2023-04-24T03:49:49;9.80;99.90
54622;DHT22;40521;53.146;6.556;2023-04-24T03:52:15;9.80;99.90
54622;DHT22;40521;53.146;6.556;2023-04-24T03:54:40;9.80;99.90
54622;DHT22;40521;53.146;6.556;2023-04-24T03:57:06;9.80;99.90
54622;DHT22;40521;53.146;6.556;2023-04-24T03:59:32;9.80;99.90
54622;DHT22;40521;53.146;6.556;2023-04-24T04:01:57;9.80;99.90
54622;DHT22;40521;53.146;6.556;2023-04-24T04:04:23;9.80;99.90
54622;DHT22;40521;53.146;6.556;2023-04-24T04:06:48;9.80;99.90
54622;DHT22;40521;53.146;6.556;2023-04-24T04:09:14;9.80;99.90
54622;DHT22;40521;53.146;6.556;2023-04-24T04:11:40;9.80;99.90
54622;DHT22;40521;53.146;6.556;2023-04-24T04:14:05;9.80;99.90
54622;DHT22;40521;53.146;6.556;2023-04-24T04:16:31;9.80;99.90
54622;DHT22;40521;53.146;6.556;2023-04-24T04:18:57;9.80;99.90
54622;DHT22;40521;53.146;6.556;2023-04-24T04:21:22;9.80;99.90
54622;DHT22;40521;53.146;6.556;2023-04-24T04:23:48;9.80;99.90
54622;DHT22;40521;53.146;6.556;2023-04-24T04:26:13;9.80;99.90
54622;DHT22;40521;53.146;6.556;2023-04-24T04:28:39;9.70;99.90
54622;DHT22;40521;53.146;6.556;2023-04-24T04:31:05;9.70;99.90
54622;DHT22;40521;53.146;6.556;2023-04-24T04:33:31;9.80;99.90
54622;DHT22;40521;53.146;6.556;2023-04-24T04:35:57;9.70;99.90
54622;DHT22;40521;53.146;6.556;2023-04-24T04:38:24;9.70;99.90
54622;DHT22;40521;53.146;6.556;2023-04-24T04:40:49;9.70;99.90
54622;DHT22;40521;53.146;6.556;2023-04-24T04:43:15;9.70;99.90
54622;DHT22;40521;53.146;6.556;2023-04-24T04:45:41;9.70;99.90
54622;DHT22;40521;53.146;6.556;2023-04-24T04:48:08;9.70;99.90
54622;DHT22;40521;53.146;6.556;2023-04-24T04:50:35;9.70;99.90
54622;DHT22;40521;53.146;6.556;2023-04-24T04:53:00;9.60;99.90
54622;DHT22;40521;53.146;6.556;2023-04-24T04:55:26;9.60;99.90
54622;DHT22;40521;53.146;6.556;2023-04-24T04:57:52;9.60;99.90
54622;DHT22;40521;53.146;6.556;2023-04-24T05:00:17;9.60;99.90
54622;DHT22;40521;53.146;6.556;2023-04-24T05:02:43;9.60;99.90
54622;DHT22;40521;53.146;6.556;2023-04-24T05:05:09;9.60;99.90
54622;DHT22;40521;53.146;6.556;2023-04-24T05:07:35;9.60;99.90
54622;DHT22;40521;53.146;6.556;2023-04-24T05:10:00;9.60;99.90
54622;DHT22;40521;53.146;6.556;2023-04-24T05:12:26;9.50;99.90
54622;DHT22;40521;53.146;6.556;2023-04-24T05:14:52;9.50;99.90
54622;DHT22;40521;53.146;6.556;2023-04-24T05:17:17;9.50;99.90
54622;DHT22;40521;53.146;6.556;2023-04-24T05:19:43;9.50;99.90
54622;DHT22;40521;53.146;6.556;2023-04-24T05:22:09;9.50;99.90
54622;DHT22;40521;53.146;6.556;2023-04-24T05:24:36;9.60;99.90
54622;DHT22;40521;53.146;6.556;2023-04-24T05:27:02;9.50;99.90
54622;DHT22;40521;53.146;6.556;2023-04-24T05:29:28;9.60;99.90
54622;DHT22;40521;53.146;6.556;2023-04-24T05:31:56;9.60;99.90
54622;DHT22;40521;53.146;6.556;2023-04-24T05:34:21;9.60;99.90
54622;DHT22;40521;53.146;6.556;2023-04-24T05:36:47;9.60;99.90
54622;DHT22;40521;53.146;6.556;2023-04-24T05:39:13;9.70;99.90
54622;DHT22;40521;53.146;6.556;2023-04-24T05:41:39;9.70;99.90
54622;DHT22;40521;53.146;6.556;2023-04-24T05:44:04;9.70;99.90
54622;DHT22;40521;53.146;6.556;2023-04-24T05:46:30;9.70;99.90
54622;DHT22;40521;53.146;6.556;2023-04-24T05:48:56;9.80;99.90
54622;DHT22;40521;53.146;6.556;2023-04-24T05:51:21;9.70;99.90
54622;DHT22;40521;53.146;6.556;2023-04-24T05:53:47;9.80;99.90
54622;DHT22;40521;53.146;6.556;2023-04-24T05:56:13;9.80;99.90
54622;DHT22;40521;53.146;6.556;2023-04-24T05:58:38;9.80;99.90
54622;DHT22;40521;53.146;6.556;2023-04-24T06:01:04;9.80;99.90
54622;DHT22;40521;53.146;6.556;2023-04-24T06:03:31;9.90;99.90
54622;DHT22;40521;53.146;6.556;2023-04-24T06:05:57;9.80;99.90
54622;DHT22;40521;53.146;6.556;2023-04-24T06:08:22;9.80;99.90
54622;DHT22;40521;53.146;6.556;2023-04-24T06:10:48;9.80;99.90
54622;DHT22;40521;53.146;6.556;2023-04-24T06:13:13;9.90;99.90
54622;DHT22;40521;53.146;6.556;2023-04-24T06:15:40;9.90;99.90
54622;DHT22;40521;53.146;6.556;2023-04-24T06:18:06;9.90;99.90
54622;DHT22;40521;53.146;6.556;2023-04-24T06:20:33;9.90;99.90
54622;DHT22;40521;53.146;6.556;2023-04-24T06:22:59;9.90;99.90
54622;DHT22;40521;53.146;6.556;2023-04-24T06:25:25;9.80;99.90
54622;DHT22;40521;53.146;6.556;2023-04-24T06:27:52;9.80;99.90
54622;DHT22;40521;53.146;6.556;2023-04-24T06:30:17;9.90;99.90
54622;DHT22;40521;53.146;6.556;2023-04-24T06:32:44;9.90;99.90
54622;DHT22;40521;53.146;6.556;2023-04-24T06:35:09;9.80;99.90
54622;DHT22;40521;53.146;6.556;2023-04-24T06:37:36;9.90;99.90
54622;DHT22;40521;53.146;6.556;2023-04-24T06:40:02;9.80;99.90
54622;DHT22;40521;53.146;6.556;2023-04-24T06:42:28;9.80;99.90
54622;DHT22;40521;53.146;6.556;2023-04-24T06:44:53;9.90;99.90
54622;DHT22;40521;53.146;6.556;2023-04-24T06:47:19;10.00;99.90
54622;DHT22;40521;53.146;6.556;2023-04-24T06:49:45;9.90;99.90
54622;DHT22;40521;53.146;6.556;2023-04-24T06:52:10;10.00;99.90
54622;DHT22;40521;53.146;6.556;2023-04-24T06:54:36;10.00;99.90
54622;DHT22;40521;53.146;6.556;2023-04-24T06:57:02;9.90;99.90
54622;DHT22;40521;53.146;6.556;2023-04-24T06:59:27;9.90;99.90
54622;DHT22;40521;53.146;6.556;2023-04-24T07:01:53;9.90;99.90
54622;DHT22;40521;53.146;6.556;2023-04-24T07:04:19;9.90;99.90
54622;DHT22;40521;53.146;6.556;2023-04-24T07:06:45;9.90;99.90
54622;DHT22;40521;53.146;6.556;2023-04-24T07:09:11;9.90;99.90
54622;DHT22;40521;53.146;6.556;2023-04-24T07:11:37;9.90;99.90
54622;DHT22;40521;53.146;6.556;2023-04-24T07:14:04;9.90;99.90
54622;DHT22;40521;53.146;6.556;2023-04-24T07:16:30;9.90;99.90
54622;DHT22;40521;53.146;6.556;2023-04-24T07:18:55;10.00;99.90
54622;DHT22;40521;53.146;6.556;2023-04-24T07:21:21;10.00;99.90
54622;DHT22;40521;53.146;6.556;2023-04-24T07:23:46;10.00;99.90
54622;DHT22;40521;53.146;6.556;2023-04-24T07:26:12;10.00;99.90
54622;DHT22;40521;53.146;6.556;2023-04-24T07:28:40;10.00;99.90
54622;DHT22;40521;53.146;6.556;2023-04-24T07:31:06;10.00;99.90
54622;DHT22;40521;53.146;6.556;2023-04-24T07:33:31;10.00;99.90
54622;DHT22;40521;53.146;6.556;2023-04-24T07:35:58;9.90;99.90
54622;DHT22;40521;53.146;6.556;2023-04-24T07:38:24;10.00;99.90
54622;DHT22;40521;53.146;6.556;2023-04-24T07:40:51;9.90;99.90
54622;DHT22;40521;53.146;6.556;2023-04-24T07:43:17;9.90;99.90
54622;DHT22;40521;53.146;6.556;2023-04-24T07:45:43;9.90;99.90
54622;DHT22;40521;53.146;6.556;2023-04-24T07:48:09;9.80;99.90
54622;DHT22;40521;53.146;6.556;2023-04-24T07:50:35;9.80;99.90
54622;DHT22;40521;53.146;6.556;2023-04-24T07:53:02;9.80;99.90
54622;DHT22;40521;53.146;6.556;2023-04-24T07:55:27;9.80;99.90
54622;DHT22;40521;53.146;6.556;2023-04-24T07:57:53;10.70;99.90
54622;DHT22;40521;53.146;6.556;2023-04-24T08:00:19;9.80;99.90
54622;DHT22;40521;53.146;6.556;2023-04-24T08:02:45;9.80;99.90
54622;DHT22;40521;53.146;6.556;2023-04-24T08:05:11;9.80;99.90
54622;DHT22;40521;53.146;6.556;2023-04-24T08:07:36;9.80;99.90
54622;DHT22;40521;53.146;6.556;2023-04-24T08:10:03;9.70;99.90
54622;DHT22;40521;53.146;6.556;2023-04-24T08:12:29;8.80;99.90
54622;DHT22;40521;53.146;6.556;2023-04-24T08:14:54;9.70;99.90
54622;DHT22;40521;53.146;6.556;2023-04-24T08:17:20;9.70;99.90
54622;DHT22;40521;53.146;6.556;2023-04-24T08:19:46;9.70;99.90
54622;DHT22;40521;53.146;6.556;2023-04-24T08:22:14;9.60;99.90
54622;DHT22;40521;53.146;6.556;2023-04-24T08:24:40;9.50;99.90
54622;DHT22;40521;53.146;6.556;2023-04-24T08:27:05;9.50;99.90
54622;DHT22;40521;53.146;6.556;2023-04-24T08:29:31;9.50;99.90
54622;DHT22;40521;53.146;6.556;2023-04-24T08:31:57;9.40;99.90
54622;DHT22;40521;53.146;6.556;2023-04-24T08:34:23;9.40;99.90
54622;DHT22;40521;53.146;6.556;2023-04-24T08:36:48;9.40;99.90
54622;DHT22;40521;53.146;6.556;2023-04-24T08:39:14;9.40;99.90
54622;DHT22;40521;53.146;6.556;2023-04-24T08:41:41;9.30;99.90
54622;DHT22;40521;53.146;6.556;2023-04-24T08:44:08;9.30;99.90
54622;DHT22;40521;53.146;6.556;2023-04-24T08:46:34;9.30;99.90
54622;DHT22;40521;53.146;6.556;2023-04-24T08:49:01;9.20;99.90
54622;DHT22;40521;53.146;6.556;2023-04-24T08:51:27;9.20;99.90
54622;DHT22;40521;53.146;6.556;2023-04-24T08:53:54;9.10;99.90
54622;DHT22;40521;53.146;6.556;2023-04-24T08:56:21;9.10;99.90
54622;DHT22;40521;53.146;6.556;2023-04-24T08:58:50;9.00;99.90
54622;DHT22;40521;53.146;6.556;2023-04-24T09:01:16;10.00;99.90
54622;DHT22;40521;53.146;6.556;2023-04-24T09:03:42;9.00;99.90
54622;DHT22;40521;53.146;6.556;2023-04-24T09:06:08;8.90;99.90
54622;DHT22;40521;53.146;6.556;2023-04-24T09:08:34;8.90;99.90
54622;DHT22;40521;53.146;6.556;2023-04-24T09:11:01;8.90;99.90
54622;DHT22;40521;53.146;6.556;2023-04-24T09:13:28;8.90;99.90
54622;DHT22;40521;53.146;6.556;2023-04-24T09:15:55;8.90;99.90
54622;DHT22;40521;53.146;6.556;2023-04-24T09:18:22;8.80;99.90
54622;DHT22;40521;53.146;6.556;2023-04-24T09:20:58;8.80;99.90
54622;DHT22;40521;53.146;6.556;2023-04-24T09:23:26;8.80;99.90
54622;DHT22;40521;53.146;6.556;2023-04-24T09:25:54;8.80;99.90
54622;DHT22;40521;53.146;6.556;2023-04-24T09:28:22;8.80;99.90
54622;DHT22;40521;53.146;6.556;2023-04-24T09:31:01;8.80;99.90
54622;DHT22;40521;53.146;6.556;2023-04-24T09:33:27;8.90;99.90
54622;DHT22;40521;53.146;6.556;2023-04-24T09:35:52;8.90;99.90
54622;DHT22;40521;53.146;6.556;2023-04-24T09:38:18;8.90;99.90
54622;DHT22;40521;53.146;6.556;2023-04-24T09:40:43;9.00;99.90
54622;DHT22;40521;53.146;6.556;2023-04-24T09:43:12;9.00;99.90
54622;DHT22;40521;53.146;6.556;2023-04-24T09:45:38;9.00;99.90
54622;DHT22;40521;53.146;6.556;2023-04-24T09:48:04;9.00;99.90
54622;DHT22;40521;53.146;6.556;2023-04-24T09:50:31;9.00;99.90
54622;DHT22;40521;53.146;6.556;2023-04-24T09:53:05;9.00;99.90
54622;DHT22;40521;53.146;6.556;2023-04-24T09:55:35;8.90;99.90
54622;DHT22;40521;53.146;6.556;2023-04-24T09:58:04;9.00;99.90
54622;DHT22;40521;53.146;6.556;2023-04-24T10:00:31;9.00;99.90
54622;DHT22;40521;53.146;6.556;2023-04-24T10:05:23;9.20;99.90
54622;DHT22;40521;53.146;6.556;2023-04-24T10:07:48;9.20;99.90
54622;DHT22;40521;53.146;6.556;2023-04-24T10:10:14;9.30;99.90
54622;DHT22;40521;53.146;6.556;2023-04-24T10:12:40;9.40;99.90
54622;DHT22;40521;53.146;6.556;2023-04-24T10:15:06;9.50;99.90
54622;DHT22;40521;53.146;6.556;2023-04-24T10:17:32;9.60;99.90
54622;DHT22;40521;53.146;6.556;2023-04-24T10:19:59;9.70;99.90
54622;DHT22;40521;53.146;6.556;2023-04-24T10:22:26;9.80;99.90
54622;DHT22;40521;53.146;6.556;2023-04-24T10:24:52;9.80;99.90
54622;DHT22;40521;53.146;6.556;2023-04-24T10:27:17;9.90;99.90
54622;DHT22;40521;53.146;6.556;2023-04-24T10:29:45;10.00;99.90
54622;DHT22;40521;53.146;6.556;2023-04-24T10:32:12;10.20;99.90
54622;DHT22;40521;53.146;6.556;2023-04-24T10:34:37;10.20;99.90
54622;DHT22;40521;53.146;6.556;2023-04-24T10:37:03;10.20;99.90
54622;DHT22;40521;53.146;6.556;2023-04-24T10:39:29;10.20;99.90
54622;DHT22;40521;53.146;6.556;2023-04-24T10:41:56;10.20;99.90
54622;DHT22;40521;53.146;6.556;2023-04-24T10:44:23;10.20;99.90
54622;DHT22;40521;53.146;6.556;2023-04-24T10:46:52;10.10;99.90
54622;DHT22;40521;53.146;6.556;2023-04-24T10:49:19;10.10;99.90
54622;DHT22;40521;53.146;6.556;2023-04-24T10:51:53;10.00;99.90
54622;DHT22;40521;53.146;6.556;2023-04-24T10:56:47;10.10;99.90
54622;DHT22;40521;53.146;6.556;2023-04-24T10:59:13;10.10;99.90
54622;DHT22;40521;53.146;6.556;2023-04-24T11:01:52;10.10;99.90
54622;DHT22;40521;53.146;6.556;2023-04-24T11:04:21;10.20;99.90
54622;DHT22;40521;53.146;6.556;2023-04-24T11:06:54;10.20;99.90
54622;DHT22;40521;53.146;6.556;2023-04-24T11:09:19;10.10;99.90
54622;DHT22;40521;53.146;6.556;2023-04-24T11:11:46;10.10;99.90
54622;DHT22;40521;53.146;6.556;2023-04-24T11:14:15;10.10;99.90
54622;DHT22;40521;53.146;6.556;2023-04-24T11:26:53;9.90;99.90
54622;DHT22;40521;53.146;6.556;2023-04-24T11:29:20;9.80;99.90
54622;DHT22;40521;53.146;6.556;2023-04-24T11:31:48;9.80;99.90
54622;DHT22;40521;53.146;6.556;2023-04-24T11:34:16;9.80;99.90
54622;DHT22;40521;53.146;6.556;2023-04-24T11:36:43;9.80;99.90
54622;DHT22;40521;53.146;6.556;2023-04-24T11:39:09;9.70;99.90
54622;DHT22;40521;53.146;6.556;2023-04-24T11:41:36;9.60;99.90
54622;DHT22;40521;53.146;6.556;2023-04-24T11:44:02;9.60;99.90
54622;DHT22;40521;53.146;6.556;2023-04-24T11:46:29;9.60;99.90
54622;DHT22;40521;53.146;6.556;2023-04-24T11:48:56;9.70;99.90
54622;DHT22;40521;53.146;6.556;2023-04-24T11:51:25;9.60;99.90
54622;DHT22;40521;53.146;6.556;2023-04-24T11:53:52;9.60;99.90
54622;DHT22;40521;53.146;6.556;2023-04-24T11:56:18;9.60;99.90
54622;DHT22;40521;53.146;6.556;2023-04-24T11:58:45;9.60;99.90
54622;DHT22;40521;53.146;6.556;2023-04-24T12:01:11;9.40;99.90
54622;DHT22;40521;53.146;6.556;2023-04-24T12:03:36;9.30;99.90
54622;DHT22;40521;53.146;6.556;2023-04-24T12:06:05;9.20;99.90
54622;DHT22;40521;53.146;6.556;2023-04-24T12:08:33;9.10;99.90
54622;DHT22;40521;53.146;6.556;2023-04-24T12:11:02;9.00;99.90
54622;DHT22;40521;53.146;6.556;2023-04-24T12:13:28;8.90;99.90
54622;DHT22;40521;53.146;6.556;2023-04-24T12:15:53;8.90;99.90
54622;DHT22;40521;53.146;6.556;2023-04-24T12:18:22;8.80;99.90
54622;DHT22;40521;53.146;6.556;2023-04-24T12:20:48;8.80;99.90
54622;DHT22;40521;53.146;6.556;2023-04-24T12:23:13;8.70;99.90
54622;DHT22;40521;53.146;6.556;2023-04-24T12:25:39;8.80;99.90
54622;DHT22;40521;53.146;6.556;2023-04-24T12:30:48;9.10;99.90
54622;DHT22;40521;53.146;6.556;2023-04-24T12:33:17;9.20;99.90
54622;DHT22;40521;53.146;6.556;2023-04-24T12:35:43;9.30;99.90
54622;DHT22;40521;53.146;6.556;2023-04-24T12:38:10;7.80;99.90
54622;DHT22;40521;53.146;6.556;2023-04-24T12:40:36;10.80;99.90
54622;DHT22;40521;53.146;6.556;2023-04-24T12:43:02;9.50;99.90
54622;DHT22;40521;53.146;6.556;2023-04-24T12:45:40;9.60;99.90
54622;DHT22;40521;53.146;6.556;2023-04-24T12:48:06;9.60;99.90
54622;DHT22;40521;53.146;6.556;2023-04-24T12:50:32;9.70;99.90
54622;DHT22;40521;53.146;6.556;2023-04-24T12:52:58;9.60;99.90
54622;DHT22;40521;53.146;6.556;2023-04-24T12:55:23;9.30;99.90
54622;DHT22;40521;53.146;6.556;2023-04-24T12:57:49;9.80;99.90
54622;DHT22;40521;53.146;6.556;2023-04-24T13:00:17;9.60;99.90
54622;DHT22;40521;53.146;6.556;2023-04-24T13:02:43;9.90;99.90
54622;DHT22;40521;53.146;6.556;2023-04-24T13:05:09;8.90;99.90
54622;DHT22;40521;53.146;6.556;2023-04-24T13:07:36;9.60;99.90
54622;DHT22;40521;53.146;6.556;2023-04-24T13:10:02;9.60;99.90
54622;DHT22;40521;53.146;6.556;2023-04-24T13:12:28;9.50;99.90
54622;DHT22;40521;53.146;6.556;2023-04-24T13:14:53;9.50;99.90
54622;DHT22;40521;53.146;6.556;2023-04-24T13:17:19;9.40;99.90
54622;DHT22;40521;53.146;6.556;2023-04-24T13:19:45;9.30;99.90
54622;DHT22;40521;53.146;6.556;2023-04-24T13:22:11;9.40;99.90
54622;DHT22;40521;53.146;6.556;2023-04-24T13:24:37;9.40;99.90
54622;DHT22;40521;53.146;6.556;2023-04-24T13:27:03;9.40;99.90
54622;DHT22;40521;53.146;6.556;2023-04-24T13:29:29;9.40;99.90
54622;DHT22;40521;53.146;6.556;2023-04-24T13:31:54;9.40;99.90
54622;DHT22;40521;53.146;6.556;2023-04-24T13:34:21;9.40;99.90
54622;DHT22;40521;53.146;6.556;2023-04-24T13:36:47;9.40;99.90
54622;DHT22;40521;53.146;6.556;2023-04-24T13:39:13;9.50;99.90
54622;DHT22;40521;53.146;6.556;2023-04-24T13:41:38;9.60;99.90
54622;DHT22;40521;53.146;6.556;2023-04-24T13:44:05;9.60;99.90
54622;DHT22;40521;53.146;6.556;2023-04-24T13:46:31;9.50;99.90
54622;DHT22;40521;53.146;6.556;2023-04-24T13:48:57;9.50;99.90
54622;DHT22;40521;53.146;6.556;2023-04-24T13:51:23;9.30;99.90
54622;DHT22;40521;53.146;6.556;2023-04-24T13:53:54;9.30;99.90
54622;DHT22;40521;53.146;6.556;2023-04-24T13:56:20;9.20;99.90
54622;DHT22;40521;53.146;6.556;2023-04-24T13:58:46;9.20;99.90
54622;DHT22;40521;53.146;6.556;2023-04-24T14:01:12;9.10;99.90
54622;DHT22;40521;53.146;6.556;2023-04-24T14:03:38;9.10;99.90
54622;DHT22;40521;53.146;6.556;2023-04-24T14:06:04;9.10;99.90
54622;DHT22;40521;53.146;6.556;2023-04-24T14:08:30;7.90;99.90
54622;DHT22;40521;53.146;6.556;2023-04-24T14:10:55;10.30;99.90
54622;DHT22;40521;53.146;6.556;2023-04-24T14:13:21;8.90;99.90
54622;DHT22;40521;53.146;6.556;2023-04-24T14:15:46;8.80;99.90
54622;DHT22;40521;53.146;6.556;2023-04-24T14:18:12;8.70;99.90
54622;DHT22;40521;53.146;6.556;2023-04-24T14:20:38;8.70;99.90
54622;DHT22;40521;53.146;6.556;2023-04-24T14:23:03;8.60;99.90
54622;DHT22;40521;53.146;6.556;2023-04-24T14:25:29;8.60;99.90
54622;DHT22;40521;53.146;6.556;2023-04-24T14:27:55;8.50;99.90
54622;DHT22;40521;53.146;6.556;2023-04-24T14:30:21;6.70;99.90
54622;DHT22;40521;53.146;6.556;2023-04-24T14:32:47;8.50;99.90
54622;DHT22;40521;53.146;6.556;2023-04-24T14:35:12;8.40;99.90
54622;DHT22;40521;53.146;6.556;2023-04-24T14:37:38;8.40;99.90
54622;DHT22;40521;53.146;6.556;2023-04-24T14:40:08;8.40;99.90
54622;DHT22;40521;53.146;6.556;2023-04-24T14:42:34;8.50;99.90
54622;DHT22;40521;53.146;6.556;2023-04-24T14:45:00;8.70;99.90
54622;DHT22;40521;53.146;6.556;2023-04-24T14:47:26;8.70;99.90
54622;DHT22;40521;53.146;6.556;2023-04-24T14:49:51;8.60;99.90
54622;DHT22;40521;53.146;6.556;2023-04-24T14:52:17;8.70;99.90
54622;DHT22;40521;53.146;6.556;2023-04-24T14:54:43;8.60;99.90
54622;DHT22;40521;53.146;6.556;2023-04-24T14:57:08;8.50;99.90
54622;DHT22;40521;53.146;6.556;2023-04-24T14:59:34;8.60;99.90
54622;DHT22;40521;53.146;6.556;2023-04-24T15:02:00;8.60;99.90
54622;DHT22;40521;53.146;6.556;2023-04-24T15:04:26;8.60;99.90
54622;DHT22;40521;53.146;6.556;2023-04-24T15:06:53;8.50;99.90
54622;DHT22;40521;53.146;6.556;2023-04-24T15:09:22;8.50;99.90
54622;DHT22;40521;53.146;6.556;2023-04-24T15:11:48;8.60;99.90
54622;DHT22;40521;53.146;6.556;2023-04-24T15:14:14;8.60;99.90
54622;DHT22;40521;53.146;6.556;2023-04-24T15:16:40;8.60;99.90
54622;DHT22;40521;53.146;6.556;2023-04-24T15:19:05;8.40;99.90
54622;DHT22;40521;53.146;6.556;2023-04-24T15:21:31;8.40;99.90
54622;DHT22;40521;53.146;6.556;2023-04-24T15:23:57;8.80;99.90
54622;DHT22;40521;53.146;6.556;2023-04-24T15:26:23;8.70;99.90
54622;DHT22;40521;53.146;6.556;2023-04-24T15:28:49;8.70;99.90
54622;DHT22;40521;53.146;6.556;2023-04-24T15:31:14;8.70;99.90
54622;DHT22;40521;53.146;6.556;2023-04-24T15:33:40;8.20;99.90
54622;DHT22;40521;53.146;6.556;2023-04-24T15:36:06;8.70;99.90
54622;DHT22;40521;53.146;6.556;2023-04-24T15:38:32;8.70;99.90
54622;DHT22;40521;53.146;6.556;2023-04-24T15:40:57;8.80;99.90
54622;DHT22;40521;53.146;6.556;2023-04-24T15:43:23;8.70;99.90
54622;DHT22;40521;53.146;6.556;2023-04-24T15:45:49;8.10;99.90
54622;DHT22;40521;53.146;6.556;2023-04-24T15:48:15;8.80;99.90
54622;DHT22;40521;53.146;6.556;2023-04-24T15:50:42;8.60;99.90
54622;DHT22;40521;53.146;6.556;2023-04-24T15:53:12;8.90;99.90